Time,TemperatureF,DewpointF,PressureIn,WindDirection,WindDirectionDegrees,WindSpeedMPH,WindSpeedGustMPH,Humidity,HourlyPrecipIn,Conditions,Clouds,dailyrainin,SoftwareType,DateUTC
2013-04-07 00:00:00,66.6,42.2,29.79,North,358,5.0,7.0,41,0.00,,,0.00,Wunderground v.1.15,2013-04-07 07:00:00,
2013-04-07 00:05:00,64.2,43.0,29.79,NNE,27,0.0,7.0,46,0.00,,,0.00,Wunderground v.1.15,2013-04-07 07:05:00,
2013-04-07 00:10:00,63.2,42.6,29.79,North,9,0.0,2.0,47,0.00,,,0.00,Wunderground v.1.15,2013-04-07 07:10:00,
2013-04-07 00:15:00,63.3,40.4,29.79,East,79,0.0,2.0,43,0.00,,,0.00,Wunderground v.1.15,2013-04-07 07:15:00,
2013-04-07 00:20:00,63.8,40.3,29.79,East,79,0.0,1.0,42,0.00,,,0.00,Wunderground v.1.15,2013-04-07 07:20:00,
2013-04-07 00:25:00,64.3,40.1,29.79,East,79,0.0,1.0,41,0.00,,,0.00,Wunderground v.1.15,2013-04-07 07:25:00,
2013-04-07 00:30:00,65.1,38.8,29.79,East,91,2.0,2.0,38,0.00,,,0.00,Wunderground v.1.15,2013-04-07 07:30:00,
2013-04-07 00:35:00,66.5,38.0,29.79,ESE,102,2.0,3.0,35,0.00,,,0.00,Wunderground v.1.15,2013-04-07 07:35:00,
2013-04-07 00:40:00,67.9,37.7,29.79,ESE,115,2.0,2.0,33,0.00,,,0.00,Wunderground v.1.15,2013-04-07 07:40:00,
2013-04-07 00:45:00,68.4,38.2,29.79,ESE,118,1.0,3.0,33,0.00,,,0.00,Wunderground v.1.15,2013-04-07 07:45:00,
2013-04-07 00:50:00,67.9,36.9,29.79,SE,130,2.0,2.0,32,0.00,,,0.00,Wunderground v.1.15,2013-04-07 07:50:00,
2013-04-07 00:55:00,67.5,36.6,29.79,ESE,119,2.0,3.0,32,0.00,,,0.00,Wunderground v.1.15,2013-04-07 07:55:00,
2013-04-07 01:00:00,67.2,36.3,29.79,ESE,117,4.0,4.0,32,0.00,,,0.00,Wunderground v.1.15,2013-04-07 08:00:00,
2013-04-07 01:05:00,67.2,36.3,29.78,ESE,120,2.0,4.0,32,0.00,,,0.00,Wunderground v.1.15,2013-04-07 08:05:00,
2013-04-07 01:10:00,67.5,35.8,29.78,ESE,122,2.0,3.0,31,0.00,,,0.00,Wunderground v.1.15,2013-04-07 08:10:00,
2013-04-07 01:15:00,67.8,36.0,29.78,East,96,0.0,3.0,31,0.00,,,0.00,Wunderground v.1.15,2013-04-07 08:15:00,
2013-04-07 01:20:00,67.9,36.1,29.78,ENE,77,1.0,2.0,31,0.00,,,0.00,Wunderground v.1.15,2013-04-07 08:20:00,
2013-04-07 01:25:00,67.8,35.2,29.78,ENE,76,0.0,2.0,30,0.00,,,0.00,Wunderground v.1.15,2013-04-07 08:25:00,
2013-04-07 01:30:00,67.6,35.9,29.78,East,97,0.0,0.0,31,0.00,,,0.00,Wunderground v.1.15,2013-04-07 08:30:00,
2013-04-07 01:35:00,67.4,35.7,29.79,ESE,119,0.0,1.0,31,0.00,,,0.00,Wunderground v.1.15,2013-04-07 08:35:00,
2013-04-07 01:40:00,66.6,40.9,29.79,NNW,347,0.0,1.0,39,0.00,,,0.00,Wunderground v.1.15,2013-04-07 08:40:00,
2013-04-07 01:45:00,65.2,42.1,29.79,NNE,23,0.0,2.0,43,0.00,,,0.00,Wunderground v.1.15,2013-04-07 08:45:00,
2013-04-07 01:50:00,64.3,37.5,29.79,North,349,0.0,0.0,37,0.00,,,0.00,Wunderground v.1.15,2013-04-07 08:50:00,
2013-04-07 01:55:00,64.2,38.7,29.79,NW,325,0.0,0.0,39,0.00,,,0.00,Wunderground v.1.15,2013-04-07 08:55:00,
2013-04-07 02:00:00,63.7,37.6,29.78,NW,312,0.0,0.0,38,0.00,,,0.00,Wunderground v.1.15,2013-04-07 09:00:00,
2013-04-07 02:05:00,63.4,38.0,29.78,NW,312,0.0,0.0,39,0.00,,,0.00,Wunderground v.1.15,2013-04-07 09:05:00,
2013-04-07 02:10:00,62.9,38.2,29.78,WNW,297,0.0,0.0,40,0.00,,,0.00,Wunderground v.1.15,2013-04-07 09:10:00,
2013-04-07 02:15:00,62.5,37.8,29.78,WSW,249,0.0,0.0,40,0.00,,,0.00,Wunderground v.1.15,2013-04-07 09:15:00,
2013-04-07 02:20:00,62.4,37.7,29.78,ESE,110,1.0,2.0,40,0.00,,,0.00,Wunderground v.1.15,2013-04-07 09:20:00,
2013-04-07 02:25:00,62.6,37.3,29.78,ESE,105,1.0,2.0,39,0.00,,,0.00,Wunderground v.1.15,2013-04-07 09:25:00,
2013-04-07 02:30:00,63.2,36.5,29.78,ESE,113,0.0,1.0,37,0.00,,,0.00,Wunderground v.1.15,2013-04-07 09:30:00,
2013-04-07 02:35:00,63.6,36.1,29.77,ESE,114,0.0,1.0,36,0.00,,,0.00,Wunderground v.1.15,2013-04-07 09:35:00,
2013-04-07 02:40:00,63.7,35.5,29.77,ESE,114,0.0,0.0,35,0.00,,,0.00,Wunderground v.1.15,2013-04-07 09:40:00,
2013-04-07 02:45:00,63.6,35.4,29.77,ESE,117,0.0,1.0,35,0.00,,,0.00,Wunderground v.1.15,2013-04-07 09:45:00,
2013-04-07 02:50:00,63.6,35.4,29.77,ESE,113,0.0,0.0,35,0.00,,,0.00,Wunderground v.1.15,2013-04-07 09:50:00,
2013-04-07 02:55:00,62.3,41.2,29.77,North,356,0.0,1.0,46,0.00,,,0.00,Wunderground v.1.15,2013-04-07 09:55:00,
2013-04-07 03:00:00,61.8,37.8,29.77,ESE,120,0.0,0.0,41,0.00,,,0.00,Wunderground v.1.15,2013-04-07 10:00:00,
2013-04-07 03:05:00,61.7,37.7,29.77,ESE,120,0.0,1.0,41,0.00,,,0.00,Wunderground v.1.15,2013-04-07 10:05:00,
2013-04-07 03:10:00,61.9,37.3,29.76,ESE,118,0.0,0.0,40,0.00,,,0.00,Wunderground v.1.15,2013-04-07 10:10:00,
2013-04-07 03:16:00,61.6,35.7,29.76,ESE,118,0.0,0.0,38,0.00,,,0.00,Wunderground v.1.15,2013-04-07 10:16:00,
2013-04-07 03:21:00,61.7,37.1,29.77,East,101,0.0,0.0,40,0.00,,,0.00,Wunderground v.1.15,2013-04-07 10:21:00,
2013-04-07 03:26:00,60.9,41.6,29.77,NNW,335,0.0,6.0,49,0.00,,,0.00,Wunderground v.1.15,2013-04-07 10:26:00,
2013-04-07 03:31:00,60.8,42.0,29.77,NNE,12,0.0,1.0,50,0.00,,,0.00,Wunderground v.1.15,2013-04-07 10:31:00,
2013-04-07 03:36:00,59.3,41.7,29.77,NW,325,0.0,4.0,52,0.00,,,0.00,Wunderground v.1.15,2013-04-07 10:36:00,
2013-04-07 03:41:00,59.0,40.4,29.77,ENE,77,0.0,1.0,50,0.00,,,0.00,Wunderground v.1.15,2013-04-07 10:41:00,
2013-04-07 03:46:00,59.6,40.4,29.77,East,101,0.0,1.0,49,0.00,,,0.00,Wunderground v.1.15,2013-04-07 10:46:00,
2013-04-07 03:51:00,61.2,37.3,29.76,ESE,110,2.0,3.0,41,0.00,,,0.00,Wunderground v.1.15,2013-04-07 10:51:00,
2013-04-07 03:56:00,62.5,37.2,29.76,East,91,1.0,3.0,39,0.00,,,0.00,Wunderground v.1.15,2013-04-07 10:56:00,
2013-04-07 04:01:00,63.2,37.2,29.77,ESE,107,0.0,1.0,38,0.00,,,0.00,Wunderground v.1.15,2013-04-07 11:01:00,
2013-04-07 04:06:00,63.8,36.3,29.77,ESE,110,0.0,1.0,36,0.00,,,0.00,Wunderground v.1.15,2013-04-07 11:06:00,
2013-04-07 04:11:00,62.1,38.7,29.77,West,271,0.0,2.0,42,0.00,,,0.00,Wunderground v.1.15,2013-04-07 11:11:00,
2013-04-07 04:16:00,59.8,41.1,29.77,West,267,0.0,2.0,50,0.00,,,0.00,Wunderground v.1.15,2013-04-07 11:16:00,
2013-04-07 04:22:00,59.0,40.9,29.77,West,267,0.0,0.0,51,0.00,,,0.00,Wunderground v.1.15,2013-04-07 11:22:00,
2013-04-07 04:27:00,58.8,40.2,29.77,SSW,207,0.0,0.0,50,0.00,,,0.00,Wunderground v.1.15,2013-04-07 11:27:00,
2013-04-07 04:32:00,58.7,38.5,29.77,SSW,207,0.0,0.0,47,0.00,,,0.00,Wunderground v.1.15,2013-04-07 11:32:00,
2013-04-07 04:37:00,59.3,37.4,29.77,SE,131,0.0,0.0,44,0.00,,,0.00,Wunderground v.1.15,2013-04-07 11:37:00,
2013-04-07 04:42:00,59.9,36.7,29.77,ESE,121,0.0,1.0,42,0.00,,,0.00,Wunderground v.1.15,2013-04-07 11:42:00,
2013-04-07 04:47:00,60.4,36.6,29.77,ESE,109,3.0,3.0,41,0.00,,,0.00,Wunderground v.1.15,2013-04-07 11:47:00,
2013-04-07 04:52:00,61.0,36.5,29.77,ESE,122,0.0,1.0,40,0.00,,,0.00,Wunderground v.1.15,2013-04-07 11:52:00,
2013-04-07 04:57:00,61.6,37.0,29.77,ESE,121,1.0,2.0,40,0.00,,,0.00,Wunderground v.1.15,2013-04-07 11:57:00,
2013-04-07 05:02:00,62.1,36.8,29.77,SE,124,0.0,1.0,39,0.00,,,0.00,Wunderground v.1.15,2013-04-07 12:02:00,
2013-04-07 05:07:00,61.8,38.4,29.77,SE,131,0.0,1.0,42,0.00,,,0.00,Wunderground v.1.15,2013-04-07 12:07:00,
2013-04-07 05:12:00,61.0,37.1,29.77,SE,131,0.0,0.0,41,0.00,,,0.00,Wunderground v.1.15,2013-04-07 12:12:00,
2013-04-07 05:17:00,59.9,43.7,29.77,SE,129,0.0,0.0,55,0.00,,,0.00,Wunderground v.1.15,2013-04-07 12:17:00,
2013-04-07 05:22:00,57.4,40.4,29.77,North,357,0.0,1.0,53,0.00,,,0.00,Wunderground v.1.15,2013-04-07 12:22:00,
2013-04-07 05:27:00,56.2,39.3,29.78,NNW,330,0.0,1.0,53,0.00,,,0.00,Wunderground v.1.15,2013-04-07 12:27:00,
2013-04-07 05:32:00,56.8,39.4,29.78,West,281,0.0,1.0,52,0.00,,,0.00,Wunderground v.1.15,2013-04-07 12:32:00,
2013-04-07 05:37:00,57.2,38.2,29.78,SW,226,0.0,1.0,49,0.00,,,0.00,Wunderground v.1.15,2013-04-07 12:37:00,
2013-04-07 05:42:00,57.1,39.6,29.78,SE,146,0.0,0.0,52,0.00,,,0.00,Wunderground v.1.15,2013-04-07 12:42:00,
2013-04-07 05:47:00,56.8,38.9,29.78,ESE,122,1.0,1.0,51,0.00,,,0.00,Wunderground v.1.15,2013-04-07 12:47:00,
2013-04-07 05:52:00,57.3,38.3,29.78,SE,124,0.0,0.0,49,0.00,,,0.00,Wunderground v.1.15,2013-04-07 12:52:00,
2013-04-07 05:57:00,57.7,37.6,29.78,ESE,122,0.0,0.0,47,0.00,,,0.00,Wunderground v.1.15,2013-04-07 12:57:00,
2013-04-07 06:02:00,58.0,36.8,29.78,East,84,0.0,2.0,45,0.00,,,0.00,Wunderground v.1.15,2013-04-07 13:02:00,
2013-04-07 06:07:00,58.2,37.5,29.78,West,269,0.0,2.0,46,0.00,,,0.00,Wunderground v.1.15,2013-04-07 13:07:00,
2013-04-07 06:12:00,57.2,39.2,29.79,West,270,0.0,0.0,51,0.00,,,0.00,Wunderground v.1.15,2013-04-07 13:12:00,
2013-04-07 06:17:00,55.9,42.2,29.79,NNE,20,0.0,2.0,60,0.00,,,0.00,Wunderground v.1.15,2013-04-07 13:17:00,
2013-04-07 06:22:00,54.9,42.5,29.79,NNE,20,0.0,0.0,63,0.00,,,0.00,Wunderground v.1.15,2013-04-07 13:22:00,
2013-04-07 06:27:00,54.5,42.2,29.80,NNE,20,0.0,0.0,63,0.00,,,0.00,Wunderground v.1.15,2013-04-07 13:27:00,
2013-04-07 06:32:00,54.8,41.6,29.80,NNE,19,0.0,0.0,61,0.00,,,0.00,Wunderground v.1.15,2013-04-07 13:32:00,
2013-04-07 06:37:00,55.6,41.0,29.80,NNE,20,0.0,0.0,58,0.00,,,0.00,Wunderground v.1.15,2013-04-07 13:37:00,
2013-04-07 06:42:00,56.6,39.7,29.80,NNE,24,0.0,0.0,53,0.00,,,0.00,Wunderground v.1.15,2013-04-07 13:42:00,
2013-04-07 06:47:00,57.6,40.1,29.81,NE,46,0.0,0.0,52,0.00,,,0.00,Wunderground v.1.15,2013-04-07 13:47:00,
2013-04-07 06:52:00,58.2,40.6,29.81,NE,46,0.0,0.0,52,0.00,,,0.00,Wunderground v.1.15,2013-04-07 13:52:00,
2013-04-07 06:57:00,58.8,39.7,29.81,NE,45,0.0,0.0,49,0.00,,,0.00,Wunderground v.1.15,2013-04-07 13:57:00,
2013-04-07 07:02:00,60.0,39.7,29.81,NE,45,0.0,0.0,47,0.00,,,0.00,Wunderground v.1.15,2013-04-07 14:02:00,
2013-04-07 07:07:00,61.1,39.6,29.81,East,88,0.0,1.0,45,0.00,,,0.00,Wunderground v.1.15,2013-04-07 14:07:00,
2013-04-07 07:12:00,62.0,39.8,29.81,East,87,0.0,0.0,44,0.00,,,0.00,Wunderground v.1.15,2013-04-07 14:12:00,
2013-04-07 07:17:00,63.0,38.3,29.82,ENE,67,0.0,2.0,40,0.00,,,0.00,Wunderground v.1.15,2013-04-07 14:17:00,
2013-04-07 07:22:00,63.9,38.4,29.81,ESE,111,0.0,0.0,39,0.00,,,0.00,Wunderground v.1.15,2013-04-07 14:22:00,
2013-04-07 07:27:00,65.3,38.3,29.82,ESE,111,0.0,1.0,37,0.00,,,0.00,Wunderground v.1.15,2013-04-07 14:27:00,
2013-04-07 07:32:00,66.2,37.7,29.82,East,96,0.0,1.0,35,0.00,,,0.00,Wunderground v.1.15,2013-04-07 14:32:00,
2013-04-07 07:37:00,66.7,37.4,29.82,ESE,113,1.0,1.0,34,0.00,,,0.00,Wunderground v.1.15,2013-04-07 14:37:00,
2013-04-07 07:42:00,67.8,37.6,29.82,ESE,113,0.0,1.0,33,0.00,,,0.00,Wunderground v.1.15,2013-04-07 14:42:00,
2013-04-07 07:47:00,68.7,36.8,29.82,SSE,153,0.0,2.0,31,0.00,,,0.00,Wunderground v.1.15,2013-04-07 14:47:00,
2013-04-07 07:52:00,69.6,37.6,29.82,ESE,120,0.0,1.0,31,0.00,,,0.00,Wunderground v.1.15,2013-04-07 14:52:00,
2013-04-07 07:58:00,70.5,37.6,29.83,ESE,116,0.0,1.0,30,0.00,,,0.00,Wunderground v.1.15,2013-04-07 14:58:00,
2013-04-07 08:03:00,69.9,38.7,29.83,SW,233,3.0,4.0,32,0.00,,,0.00,Wunderground v.1.15,2013-04-07 15:03:00,
2013-04-07 08:08:00,68.9,37.8,29.83,West,266,0.0,4.0,32,0.00,,,0.00,Wunderground v.1.15,2013-04-07 15:08:00,
2013-04-07 08:13:00,68.7,38.4,29.83,WSW,246,1.0,1.0,33,0.00,,,0.00,Wunderground v.1.15,2013-04-07 15:13:00,
2013-04-07 08:18:00,69.5,39.1,29.83,WSW,245,0.0,1.0,33,0.00,,,0.00,Wunderground v.1.15,2013-04-07 15:18:00,
2013-04-07 08:23:00,71.2,39.8,29.83,SSE,149,1.0,2.0,32,0.00,,,0.00,Wunderground v.1.15,2013-04-07 15:23:00,
2013-04-07 08:28:00,72.5,38.4,29.83,SSE,167,0.0,2.0,29,0.00,,,0.00,Wunderground v.1.15,2013-04-07 15:28:00,
2013-04-07 08:33:00,73.5,39.3,29.83,SW,219,0.0,1.0,29,0.00,,,0.00,Wunderground v.1.15,2013-04-07 15:33:00,
2013-04-07 08:38:00,74.2,39.0,29.83,SW,218,0.0,1.0,28,0.00,,,0.00,Wunderground v.1.15,2013-04-07 15:38:00,
2013-04-07 08:43:00,74.8,39.5,29.83,WNW,290,1.0,2.0,28,0.00,,,0.00,Wunderground v.1.15,2013-04-07 15:43:00,
2013-04-07 08:48:00,73.0,38.9,29.83,WNW,290,1.0,3.0,29,0.00,,,0.00,Wunderground v.1.15,2013-04-07 15:48:00,
2013-04-07 08:53:00,72.2,39.0,29.83,West,278,1.0,3.0,30,0.00,,,0.00,Wunderground v.1.15,2013-04-07 15:53:00,
2013-04-07 08:58:00,72.1,39.8,29.83,WNW,288,1.0,3.0,31,0.00,,,0.00,Wunderground v.1.15,2013-04-07 15:58:00,
2013-04-07 09:03:00,72.3,40.0,29.84,WNW,285,2.0,3.0,31,0.00,,,0.00,Wunderground v.1.15,2013-04-07 16:03:00,
2013-04-07 09:08:00,72.2,40.7,29.84,NW,311,2.0,3.0,32,0.00,,,0.00,Wunderground v.1.15,2013-04-07 16:08:00,
2013-04-07 09:13:00,72.5,41.0,29.84,West,266,2.0,2.0,32,0.00,,,0.00,Wunderground v.1.15,2013-04-07 16:13:00,
2013-04-07 09:18:00,72.8,42.0,29.83,NW,314,2.0,2.0,33,0.00,,,0.00,Wunderground v.1.15,2013-04-07 16:18:00,
2013-04-07 09:23:00,72.9,42.1,29.84,WNW,289,1.0,2.0,33,0.00,,,0.00,Wunderground v.1.15,2013-04-07 16:23:00,
2013-04-07 09:28:00,73.5,42.6,29.84,WSW,243,2.0,3.0,33,0.00,,,0.00,Wunderground v.1.15,2013-04-07 16:28:00,
2013-04-07 09:33:00,73.9,42.2,29.84,WNW,282,1.0,2.0,32,0.00,,,0.00,Wunderground v.1.15,2013-04-07 16:33:00,
2013-04-07 09:38:00,74.5,41.9,29.84,West,266,2.0,3.0,31,0.00,,,0.00,Wunderground v.1.15,2013-04-07 16:38:00,
2013-04-07 09:43:00,74.9,39.6,29.84,West,280,1.0,3.0,28,0.00,,,0.00,Wunderground v.1.15,2013-04-07 16:43:00,
2013-04-07 09:48:00,75.5,39.2,29.84,WNW,283,0.0,3.0,27,0.00,,,0.00,Wunderground v.1.15,2013-04-07 16:48:00,
2013-04-07 09:53:00,76.4,39.0,29.84,West,276,1.0,4.0,26,0.00,,,0.00,Wunderground v.1.15,2013-04-07 16:53:00,
2013-04-07 09:58:00,77.1,37.5,29.84,West,278,1.0,4.0,24,0.00,,,0.00,Wunderground v.1.15,2013-04-07 16:58:00,
2013-04-07 10:03:00,78.0,38.3,29.84,West,273,1.0,2.0,24,0.00,,,0.00,Wunderground v.1.15,2013-04-07 17:03:00,
2013-04-07 10:08:00,78.9,39.0,29.84,WNW,284,2.0,2.0,24,0.00,,,0.00,Wunderground v.1.15,2013-04-07 17:08:00,
2013-04-07 10:13:00,79.3,36.0,29.84,WNW,290,1.0,2.0,21,0.00,,,0.00,Wunderground v.1.15,2013-04-07 17:13:00,
2013-04-07 10:18:00,79.5,36.1,29.84,West,273,1.0,3.0,21,0.00,,,0.00,Wunderground v.1.15,2013-04-07 17:18:00,
2013-04-07 10:23:00,79.4,37.2,29.84,WNW,301,3.0,6.0,22,0.00,,,0.00,Wunderground v.1.15,2013-04-07 17:23:00,
2013-04-07 10:28:00,79.4,39.4,29.84,WNW,285,2.0,6.0,24,0.00,,,0.00,Wunderground v.1.15,2013-04-07 17:28:00,
2013-04-07 10:33:00,79.5,39.5,29.84,WSW,252,2.0,3.0,24,0.00,,,0.00,Wunderground v.1.15,2013-04-07 17:33:00,
2013-04-07 10:38:00,79.6,36.2,29.84,WNW,288,4.0,9.0,21,0.00,,,0.00,Wunderground v.1.15,2013-04-07 17:38:00,
2013-04-07 10:43:00,79.3,38.3,29.84,West,269,7.0,9.0,23,0.00,,,0.00,Wunderground v.1.15,2013-04-07 17:43:00,
2013-04-07 10:48:00,79.3,37.1,29.84,West,281,3.0,9.0,22,0.00,,,0.00,Wunderground v.1.15,2013-04-07 17:48:00,
2013-04-07 10:53:00,79.2,39.3,29.84,West,276,4.0,7.0,24,0.00,,,0.00,Wunderground v.1.15,2013-04-07 17:53:00,
2013-04-07 10:58:00,79.4,37.2,29.84,West,273,3.0,7.0,22,0.00,,,0.00,Wunderground v.1.15,2013-04-07 17:58:00,
2013-04-07 11:03:00,79.8,38.7,29.84,WNW,287,4.0,6.0,23,0.00,,,0.00,Wunderground v.1.15,2013-04-07 18:03:00,
2013-04-07 11:08:00,80.6,40.5,29.83,SW,219,0.0,6.0,24,0.00,,,0.00,Wunderground v.1.15,2013-04-07 18:08:00,
2013-04-07 11:13:00,81.1,39.8,29.83,North,355,2.0,4.0,23,0.00,,,0.00,Wunderground v.1.15,2013-04-07 18:13:00,
2013-04-07 11:18:00,81.4,40.0,29.83,West,270,2.0,5.0,23,0.00,,,0.00,Wunderground v.1.15,2013-04-07 18:18:00,
2013-04-07 11:23:00,82.0,40.5,29.83,East,97,1.0,3.0,23,0.00,,,0.00,Wunderground v.1.15,2013-04-07 18:23:00,
2013-04-07 11:28:00,83.1,40.3,29.83,East,92,1.0,3.0,22,0.00,,,0.00,Wunderground v.1.15,2013-04-07 18:28:00,
2013-04-07 11:33:00,84.1,42.3,29.83,SW,229,3.0,3.0,23,0.00,,,0.00,Wunderground v.1.15,2013-04-07 18:33:00,
2013-04-07 11:38:00,83.6,37.0,29.82,NW,311,2.0,7.0,19,0.00,,,0.00,Wunderground v.1.15,2013-04-07 18:38:00,
2013-04-07 11:43:00,83.1,40.3,29.82,West,264,4.0,4.0,22,0.00,,,0.00,Wunderground v.1.15,2013-04-07 18:43:00,
2013-04-07 11:48:00,82.1,38.3,29.82,WNW,292,1.0,8.0,21,0.00,,,0.00,Wunderground v.1.15,2013-04-07 18:48:00,
2013-04-07 11:53:00,81.9,38.1,29.82,NW,325,3.0,8.0,21,0.00,,,0.00,Wunderground v.1.15,2013-04-07 18:53:00,
2013-04-07 11:58:00,81.8,39.2,29.81,North,6,4.0,8.0,22,0.00,,,0.00,Wunderground v.1.15,2013-04-07 18:58:00,
2013-04-07 12:03:00,82.6,39.9,29.81,WSW,257,4.0,4.0,22,0.00,,,0.00,Wunderground v.1.15,2013-04-07 19:03:00,
2013-04-07 12:08:00,83.2,40.4,29.81,SW,219,4.0,5.0,22,0.00,,,0.00,Wunderground v.1.15,2013-04-07 19:08:00,
2013-04-07 12:13:00,83.8,39.7,29.80,West,271,0.0,2.0,21,0.00,,,0.00,Wunderground v.1.15,2013-04-07 19:13:00,
2013-04-07 12:18:00,83.6,39.5,29.80,WNW,297,4.0,7.0,21,0.00,,,0.00,Wunderground v.1.15,2013-04-07 19:18:00,
2013-04-07 12:23:00,83.0,41.4,29.80,North,352,0.0,4.0,23,0.00,,,0.00,Wunderground v.1.15,2013-04-07 19:23:00,
2013-04-07 12:28:00,83.3,41.6,29.80,WSW,245,3.0,5.0,23,0.00,,,0.00,Wunderground v.1.15,2013-04-07 19:28:00,
2013-04-07 12:33:00,83.2,39.2,29.79,WSW,257,7.0,7.0,21,0.00,,,0.00,Wunderground v.1.15,2013-04-07 19:33:00,
2013-04-07 12:38:00,82.8,41.2,29.79,SW,215,0.0,7.0,23,0.00,,,0.00,Wunderground v.1.15,2013-04-07 19:38:00,
2013-04-07 12:43:00,83.9,39.8,29.79,South,188,1.0,4.0,21,0.00,,,0.00,Wunderground v.1.15,2013-04-07 19:43:00,
2013-04-07 12:48:00,83.8,38.4,29.79,West,262,4.0,6.0,20,0.00,,,0.00,Wunderground v.1.15,2013-04-07 19:48:00,
2013-04-07 12:53:00,83.5,40.6,29.79,SE,139,0.0,4.0,22,0.00,,,0.00,Wunderground v.1.15,2013-04-07 19:53:00,
2013-04-07 12:58:00,83.6,39.5,29.79,South,184,1.0,7.0,21,0.00,,,0.00,Wunderground v.1.15,2013-04-07 19:58:00,
2013-04-07 13:03:00,83.9,39.8,29.78,SW,233,0.0,4.0,21,0.00,,,0.00,Wunderground v.1.15,2013-04-07 20:03:00,
2013-04-07 13:08:00,83.7,40.8,29.78,SW,231,0.0,4.0,22,0.00,,,0.00,Wunderground v.1.15,2013-04-07 20:08:00,
2013-04-07 13:13:00,84.2,42.4,29.78,West,259,3.0,4.0,23,0.00,,,0.00,Wunderground v.1.15,2013-04-07 20:13:00,
2013-04-07 13:18:00,84.9,40.6,29.77,WNW,285,1.0,5.0,21,0.00,,,0.00,Wunderground v.1.15,2013-04-07 20:18:00,
2013-04-07 13:23:00,85.5,41.1,29.77,West,281,1.0,3.0,21,0.00,,,0.00,Wunderground v.1.15,2013-04-07 20:23:00,
2013-04-07 13:28:00,86.1,41.6,29.77,WSW,246,1.0,5.0,21,0.00,,,0.00,Wunderground v.1.15,2013-04-07 20:28:00,
2013-04-07 13:33:00,86.8,42.2,29.77,WSW,257,0.0,6.0,21,0.00,,,0.00,Wunderground v.1.15,2013-04-07 20:33:00,
2013-04-07 13:38:00,88.1,39.3,29.76,WSW,257,4.0,6.0,18,0.00,,,0.00,Wunderground v.1.15,2013-04-07 20:38:00,
2013-04-07 13:43:00,87.1,39.8,29.76,WNW,293,2.0,5.0,19,0.00,,,0.00,Wunderground v.1.15,2013-04-07 20:43:00,
2013-04-07 13:48:00,86.9,36.8,29.76,West,260,4.0,6.0,17,0.00,,,0.00,Wunderground v.1.15,2013-04-07 20:48:00,
2013-04-07 13:53:00,86.8,39.6,29.76,West,276,1.0,3.0,19,0.00,,,0.00,Wunderground v.1.15,2013-04-07 20:53:00,
2013-04-07 13:59:00,87.9,39.1,29.75,SSE,162,2.0,4.0,18,0.00,,,0.00,Wunderground v.1.15,2013-04-07 20:59:00,
2013-04-07 14:04:00,89.2,38.7,29.75,West,273,1.0,5.0,17,0.00,,,0.00,Wunderground v.1.15,2013-04-07 21:04:00,
2013-04-07 14:09:00,88.8,35.2,29.75,WSW,257,6.0,8.0,15,0.00,,,0.00,Wunderground v.1.15,2013-04-07 21:09:00,
2013-04-07 14:14:00,88.7,36.7,29.75,West,274,2.0,9.0,16,0.00,,,0.00,Wunderground v.1.15,2013-04-07 21:14:00,
2013-04-07 14:19:00,87.2,33.9,29.75,WSW,250,2.0,9.0,15,0.00,,,0.00,Wunderground v.1.15,2013-04-07 21:19:00,
2013-04-07 14:24:00,86.7,36.7,29.75,WNW,283,7.0,10.0,17,0.00,,,0.00,Wunderground v.1.15,2013-04-07 21:24:00,
2013-04-07 14:29:00,86.3,36.3,29.74,WNW,285,5.0,10.0,17,0.00,,,0.00,Wunderground v.1.15,2013-04-07 21:29:00,
2013-04-07 14:34:00,85.9,37.5,29.74,WSW,257,6.0,10.0,18,0.00,,,0.00,Wunderground v.1.15,2013-04-07 21:34:00,
2013-04-07 14:39:00,85.7,35.9,29.74,West,259,1.0,10.0,17,0.00,,,0.00,Wunderground v.1.15,2013-04-07 21:39:00,
2013-04-07 14:44:00,86.0,38.9,29.74,WSW,250,4.0,9.0,19,0.00,,,0.00,Wunderground v.1.15,2013-04-07 21:44:00,
2013-04-07 14:49:00,86.1,37.6,29.74,SW,226,4.0,9.0,18,0.00,,,0.00,Wunderground v.1.15,2013-04-07 21:49:00,
2013-04-07 14:54:00,86.1,37.6,29.73,SSW,203,0.0,5.0,18,0.00,,,0.00,Wunderground v.1.15,2013-04-07 21:54:00,
2013-04-07 14:59:00,87.2,38.5,29.73,SSW,197,1.0,5.0,18,0.00,,,0.00,Wunderground v.1.15,2013-04-07 21:59:00,
2013-04-07 15:04:00,88.1,39.3,29.73,WSW,255,0.0,2.0,18,0.00,,,0.00,Wunderground v.1.15,2013-04-07 22:04:00,
2013-04-07 15:09:00,87.8,37.6,29.73,SW,232,3.0,5.0,17,0.00,,,0.00,Wunderground v.1.15,2013-04-07 22:09:00,
2013-04-07 15:14:00,87.8,37.6,29.72,West,264,1.0,2.0,17,0.00,,,0.00,Wunderground v.1.15,2013-04-07 22:14:00,
2013-04-07 15:19:00,87.9,37.6,29.72,SE,134,1.0,5.0,17,0.00,,,0.00,Wunderground v.1.15,2013-04-07 22:19:00,
2013-04-07 15:24:00,88.4,38.0,29.72,WSW,245,1.0,2.0,17,0.00,,,0.00,Wunderground v.1.15,2013-04-07 22:24:00,
2013-04-07 15:29:00,88.4,38.0,29.72,WSW,243,0.0,4.0,17,0.00,,,0.00,Wunderground v.1.15,2013-04-07 22:29:00,
2013-04-07 15:34:00,88.9,38.4,29.72,South,191,0.0,4.0,17,0.00,,,0.00,Wunderground v.1.15,2013-04-07 22:34:00,
2013-04-07 15:39:00,89.9,42.1,29.72,WSW,240,0.0,4.0,19,0.00,,,0.00,Wunderground v.1.15,2013-04-07 22:39:00,
2013-04-07 15:44:00,89.2,37.1,29.71,West,267,1.0,5.0,16,0.00,,,0.00,Wunderground v.1.15,2013-04-07 22:44:00,
2013-04-07 15:49:00,88.9,38.4,29.71,West,277,0.0,5.0,17,0.00,,,0.00,Wunderground v.1.15,2013-04-07 22:49:00,
2013-04-07 15:54:00,89.3,38.8,29.71,WSW,248,0.0,2.0,17,0.00,,,0.00,Wunderground v.1.15,2013-04-07 22:54:00,
2013-04-07 15:59:00,90.0,36.1,29.70,WSW,249,0.0,2.0,15,0.00,,,0.00,Wunderground v.1.15,2013-04-07 22:59:00,
2013-04-07 16:04:00,90.3,38.0,29.70,SW,233,0.0,2.0,16,0.00,,,0.00,Wunderground v.1.15,2013-04-07 23:04:00,
2013-04-07 16:09:00,90.0,36.1,29.70,West,269,1.0,5.0,15,0.00,,,0.00,Wunderground v.1.15,2013-04-07 23:09:00,
2013-04-07 16:14:00,89.2,37.1,29.69,WSW,248,2.0,5.0,16,0.00,,,0.00,Wunderground v.1.15,2013-04-07 23:14:00,
2013-04-07 16:19:00,88.6,36.7,29.69,WSW,242,1.0,6.0,16,0.00,,,0.00,Wunderground v.1.15,2013-04-07 23:19:00,
2013-04-07 16:24:00,89.1,37.1,29.69,ESE,118,3.0,4.0,16,0.00,,,0.00,Wunderground v.1.15,2013-04-07 23:24:00,
2013-04-07 16:29:00,89.1,37.1,29.69,SSE,156,0.0,5.0,16,0.00,,,0.00,Wunderground v.1.15,2013-04-07 23:29:00,
2013-04-07 16:34:00,89.3,37.2,29.69,West,263,2.0,4.0,16,0.00,,,0.00,Wunderground v.1.15,2013-04-07 23:34:00,
2013-04-07 16:39:00,88.7,36.7,29.69,SSW,208,5.0,6.0,16,0.00,,,0.00,Wunderground v.1.15,2013-04-07 23:39:00,
2013-04-07 16:44:00,89.0,37.0,29.68,SW,232,0.0,5.0,16,0.00,,,0.00,Wunderground v.1.15,2013-04-07 23:44:00,
2013-04-07 16:49:00,89.1,37.1,29.68,West,262,2.0,6.0,16,0.00,,,0.00,Wunderground v.1.15,2013-04-07 23:49:00,
2013-04-07 16:54:00,88.5,38.1,29.68,WSW,257,2.0,6.0,17,0.00,,,0.00,Wunderground v.1.15,2013-04-07 23:54:00,
2013-04-07 16:59:00,88.3,39.4,29.68,WSW,242,6.0,6.0,18,0.00,,,0.00,Wunderground v.1.15,2013-04-07 23:59:00,
2013-04-07 17:04:00,88.8,39.8,29.67,SSW,194,0.0,5.0,18,0.00,,,0.00,Wunderground v.1.15,2013-04-08 00:04:00,
2013-04-07 17:09:00,89.4,35.7,29.67,West,278,4.0,5.0,15,0.00,,,0.00,Wunderground v.1.15,2013-04-08 00:09:00,
2013-04-07 17:14:00,88.3,36.4,29.67,SW,218,3.0,5.0,16,0.00,,,0.00,Wunderground v.1.15,2013-04-08 00:14:00,
2013-04-07 17:19:00,87.9,36.1,29.67,WSW,255,2.0,6.0,16,0.00,,,0.00,Wunderground v.1.15,2013-04-08 00:19:00,
2013-04-07 17:25:00,87.9,36.1,29.67,SW,231,2.0,6.0,16,0.00,,,0.00,Wunderground v.1.15,2013-04-08 00:25:00,
2013-04-07 17:30:00,88.2,36.3,29.67,West,267,3.0,3.0,16,0.00,,,0.00,Wunderground v.1.15,2013-04-08 00:30:00,
2013-04-07 17:35:00,88.1,36.3,29.66,WSW,256,2.0,7.0,16,0.00,,,0.00,Wunderground v.1.15,2013-04-08 00:35:00,
2013-04-07 17:40:00,87.7,35.9,29.66,SW,230,2.0,2.0,16,0.00,,,0.00,Wunderground v.1.15,2013-04-08 00:40:00,
2013-04-07 17:45:00,87.2,35.5,29.66,West,264,1.0,5.0,16,0.00,,,0.00,Wunderground v.1.15,2013-04-08 00:45:00,
2013-04-07 17:50:00,87.1,38.4,29.66,SW,226,2.0,2.0,18,0.00,,,0.00,Wunderground v.1.15,2013-04-08 00:50:00,
2013-04-07 17:55:00,86.6,38.0,29.65,WSW,256,2.0,4.0,18,0.00,,,0.00,Wunderground v.1.15,2013-04-08 00:55:00,
2013-04-07 18:00:00,86.6,38.0,29.65,West,280,1.0,2.0,18,0.00,,,0.00,Wunderground v.1.15,2013-04-08 01:00:00,
2013-04-07 18:05:00,86.6,38.0,29.65,West,271,2.0,3.0,18,0.00,,,0.00,Wunderground v.1.15,2013-04-08 01:05:00,
2013-04-07 18:10:00,87.0,39.7,29.65,West,281,0.0,1.0,19,0.00,,,0.00,Wunderground v.1.15,2013-04-08 01:10:00,
2013-04-07 18:15:00,87.2,39.9,29.65,West,273,0.0,2.0,19,0.00,,,0.00,Wunderground v.1.15,2013-04-08 01:15:00,
2013-04-07 18:20:00,87.6,41.6,29.65,WNW,285,1.0,1.0,20,0.00,,,0.00,Wunderground v.1.15,2013-04-08 01:20:00,
2013-04-07 18:25:00,87.4,41.4,29.64,West,280,0.0,2.0,20,0.00,,,0.00,Wunderground v.1.15,2013-04-08 01:25:00,
2013-04-07 18:30:00,87.3,41.3,29.64,West,278,0.0,0.0,20,0.00,,,0.00,Wunderground v.1.15,2013-04-08 01:30:00,
2013-04-07 18:35:00,87.3,40.0,29.64,West,278,0.0,1.0,19,0.00,,,0.00,Wunderground v.1.15,2013-04-08 01:35:00,
2013-04-07 18:40:00,86.9,39.7,29.64,West,259,0.0,0.0,19,0.00,,,0.00,Wunderground v.1.15,2013-04-08 01:40:00,
2013-04-07 18:45:00,86.4,37.9,29.63,WSW,249,0.0,0.0,18,0.00,,,0.00,Wunderground v.1.15,2013-04-08 01:45:00,
2013-04-07 18:50:00,85.8,40.1,29.63,WSW,249,0.0,0.0,20,0.00,,,0.00,Wunderground v.1.15,2013-04-08 01:50:00,
2013-04-07 18:55:00,85.0,40.7,29.63,WSW,248,0.0,0.0,21,0.00,,,0.00,Wunderground v.1.15,2013-04-08 01:55:00,
2013-04-07 19:00:00,83.9,37.2,29.63,WSW,246,0.0,0.0,19,0.00,,,0.00,Wunderground v.1.15,2013-04-08 02:00:00,
2013-04-07 19:05:00,83.5,38.2,29.62,WSW,246,0.0,0.0,20,0.00,,,0.00,Wunderground v.1.15,2013-04-08 02:05:00,
2013-04-07 19:10:00,83.0,37.8,29.62,WSW,246,0.0,0.0,20,0.00,,,0.00,Wunderground v.1.15,2013-04-08 02:10:00,
2013-04-07 19:15:00,82.1,39.5,29.62,WSW,246,0.0,0.0,22,0.00,,,0.00,Wunderground v.1.15,2013-04-08 02:15:00,
2013-04-07 19:20:00,81.4,37.7,29.62,WSW,246,0.0,0.0,21,0.00,,,0.00,Wunderground v.1.15,2013-04-08 02:20:00,
2013-04-07 19:25:00,80.9,38.5,29.62,WSW,247,0.0,0.0,22,0.00,,,0.00,Wunderground v.1.15,2013-04-08 02:25:00,
2013-04-07 19:30:00,80.4,38.1,29.62,WSW,247,0.0,0.0,22,0.00,,,0.00,Wunderground v.1.15,2013-04-08 02:30:00,
2013-04-07 19:35:00,79.9,39.9,29.62,WSW,238,1.0,1.0,24,0.00,,,0.00,Wunderground v.1.15,2013-04-08 02:35:00,
2013-04-07 19:40:00,79.0,38.0,29.62,SW,226,5.0,5.0,23,0.00,,,0.00,Wunderground v.1.15,2013-04-08 02:40:00,
2013-04-07 19:45:00,79.3,38.3,29.62,SE,128,0.0,5.0,23,0.00,,,0.00,Wunderground v.1.15,2013-04-08 02:45:00,
2013-04-07 19:50:00,79.5,37.3,29.62,SSW,204,1.0,1.0,22,0.00,,,0.00,Wunderground v.1.15,2013-04-08 02:50:00,
2013-04-07 19:55:00,79.8,37.6,29.62,SW,225,3.0,5.0,22,0.00,,,0.00,Wunderground v.1.15,2013-04-08 02:55:00,
2013-04-07 20:00:00,80.2,37.9,29.63,WSW,242,3.0,3.0,22,0.00,,,0.00,Wunderground v.1.15,2013-04-08 03:00:00,
2013-04-07 20:06:00,80.2,40.1,29.63,SSW,204,5.0,5.0,24,0.00,,,0.00,Wunderground v.1.15,2013-04-08 03:06:00,
2013-04-07 20:11:00,79.9,40.9,29.63,SE,142,3.0,3.0,25,0.00,,,0.00,Wunderground v.1.15,2013-04-08 03:11:00,
2013-04-07 20:16:00,79.5,41.6,29.63,SSW,203,3.0,7.0,26,0.00,,,0.00,Wunderground v.1.15,2013-04-08 03:16:00,
2013-04-07 20:21:00,79.1,41.3,29.64,SW,233,4.0,4.0,26,0.00,,,0.00,Wunderground v.1.15,2013-04-08 03:21:00,
2013-04-07 20:26:00,78.8,41.0,29.64,South,176,2.0,10.0,26,0.00,,,0.00,Wunderground v.1.15,2013-04-08 03:26:00,
2013-04-07 20:31:00,78.4,41.6,29.64,WSW,248,1.0,8.0,27,0.00,,,0.00,Wunderground v.1.15,2013-04-08 03:31:00,
2013-04-07 20:36:00,78.0,42.2,29.64,SSW,195,2.0,8.0,28,0.00,,,0.00,Wunderground v.1.15,2013-04-08 03:36:00,
2013-04-07 20:41:00,77.8,42.1,29.65,South,181,1.0,7.0,28,0.00,,,0.00,Wunderground v.1.15,2013-04-08 03:41:00,
2013-04-07 20:46:00,77.5,42.7,29.65,SSW,193,2.0,7.0,29,0.00,,,0.00,Wunderground v.1.15,2013-04-08 03:46:00,
2013-04-07 20:52:00,77.2,43.4,29.65,SSW,195,3.0,3.0,30,0.00,,,0.00,Wunderground v.1.15,2013-04-08 03:52:00,
2013-04-07 20:57:00,76.8,43.0,29.65,WSW,256,3.0,3.0,30,0.00,,,0.00,Wunderground v.1.15,2013-04-08 03:57:00,
2013-04-07 21:00:00,76.6,43.7,29.65,SSW,200,3.0,3.0,31,0.00,,,0.00,Wunderground v.1.15,2013-04-08 04:00:00,
2013-04-07 21:01:00,76.5,43.6,29.65,ESE,117,2.0,7.0,31,0.00,,,0.00,Wunderground v.1.15,2013-04-08 04:01:00,
2013-04-07 21:06:00,76.2,43.3,29.64,SW,228,5.0,7.0,31,0.00,,,0.00,Wunderground v.1.15,2013-04-08 04:06:00,
2013-04-07 21:11:00,75.9,43.1,29.64,South,172,4.0,4.0,31,0.00,,,0.00,Wunderground v.1.15,2013-04-08 04:11:00,
2013-04-07 21:16:00,75.6,42.8,29.64,SSE,163,0.0,6.0,31,0.00,,,0.00,Wunderground v.1.15,2013-04-08 04:16:00,
2013-04-07 21:21:00,75.4,43.5,29.64,SE,134,1.0,2.0,32,0.00,,,0.00,Wunderground v.1.15,2013-04-08 04:21:00,
2013-04-07 21:26:00,75.2,43.3,29.64,SW,226,3.0,4.0,32,0.00,,,0.00,Wunderground v.1.15,2013-04-08 04:26:00,
2013-04-07 21:31:00,75.0,43.1,29.64,SW,215,4.0,4.0,32,0.00,,,0.00,Wunderground v.1.15,2013-04-08 04:31:00,
2013-04-07 21:36:00,74.8,43.0,29.64,WNW,290,1.0,4.0,32,0.00,,,0.00,Wunderground v.1.15,2013-04-08 04:36:00,
2013-04-07 21:41:00,74.5,43.5,29.65,SSE,150,1.0,4.0,33,0.00,,,0.00,Wunderground v.1.15,2013-04-08 04:41:00,
2013-04-07 21:46:00,74.1,43.1,29.65,SSE,159,2.0,4.0,33,0.00,,,0.00,Wunderground v.1.15,2013-04-08 04:46:00,
2013-04-07 21:52:00,73.9,43.0,29.65,SSW,212,0.0,2.0,33,0.00,,,0.00,Wunderground v.1.15,2013-04-08 04:52:00,
2013-04-07 21:57:00,73.6,43.5,29.65,SSW,205,1.0,4.0,34,0.00,,,0.00,Wunderground v.1.15,2013-04-08 04:57:00,
2013-04-07 22:02:00,73.3,43.2,29.65,SSE,153,0.0,1.0,34,0.00,,,0.00,Wunderground v.1.15,2013-04-08 05:02:00,
2013-04-07 22:07:00,72.9,42.9,29.64,SW,217,0.0,1.0,34,0.00,,,0.00,Wunderground v.1.15,2013-04-08 05:07:00,
2013-04-07 22:12:00,72.7,41.9,29.64,SW,214,0.0,2.0,33,0.00,,,0.00,Wunderground v.1.15,2013-04-08 05:12:00,
2013-04-07 22:17:00,72.9,41.3,29.64,SW,217,1.0,3.0,32,0.00,,,0.00,Wunderground v.1.15,2013-04-08 05:17:00,
2013-04-07 22:22:00,73.4,40.9,29.63,SW,232,2.0,3.0,31,0.00,,,0.00,Wunderground v.1.15,2013-04-08 05:22:00,
2013-04-07 22:27:00,73.9,41.3,29.64,SSE,150,0.0,4.0,31,0.00,,,0.00,Wunderground v.1.15,2013-04-08 05:27:00,
2013-04-07 22:32:00,74.1,40.7,29.64,SE,135,0.0,2.0,30,0.00,,,0.00,Wunderground v.1.15,2013-04-08 05:32:00,
2013-04-07 22:37:00,74.2,40.8,29.64,SSE,150,1.0,3.0,30,0.00,,,0.00,Wunderground v.1.15,2013-04-08 05:37:00,
2013-04-07 22:42:00,74.4,40.9,29.64,WSW,242,0.0,2.0,30,0.00,,,0.00,Wunderground v.1.15,2013-04-08 05:42:00,
2013-04-07 22:47:00,74.6,41.1,29.64,SW,226,2.0,2.0,30,0.00,,,0.00,Wunderground v.1.15,2013-04-08 05:47:00,
2013-04-07 22:52:00,75.1,42.4,29.64,East,95,1.0,6.0,31,0.00,,,0.00,Wunderground v.1.15,2013-04-08 05:52:00,
2013-04-07 22:57:00,74.8,43.0,29.64,SW,217,2.0,6.0,32,0.00,,,0.00,Wunderground v.1.15,2013-04-08 05:57:00,
2013-04-07 23:02:00,74.2,43.2,29.64,SW,214,1.0,4.0,33,0.00,,,0.00,Wunderground v.1.15,2013-04-08 06:02:00,
2013-04-07 23:07:00,73.7,43.6,29.64,SSE,162,2.0,4.0,34,0.00,,,0.00,Wunderground v.1.15,2013-04-08 06:07:00,
2013-04-07 23:12:00,73.2,43.1,29.63,WSW,252,2.0,5.0,34,0.00,,,0.00,Wunderground v.1.15,2013-04-08 06:12:00,
2013-04-07 23:17:00,73.0,43.7,29.63,SSW,208,0.0,5.0,35,0.00,,,0.00,Wunderground v.1.15,2013-04-08 06:17:00,
2013-04-07 23:22:00,72.8,43.5,29.63,SSW,212,1.0,5.0,35,0.00,,,0.00,Wunderground v.1.15,2013-04-08 06:22:00,
2013-04-07 23:27:00,72.6,43.4,29.62,South,176,2.0,6.0,35,0.00,,,0.00,Wunderground v.1.15,2013-04-08 06:27:00,
2013-04-07 23:32:00,72.7,43.5,29.62,SSE,159,4.0,9.0,35,0.00,,,0.00,Wunderground v.1.15,2013-04-08 06:32:00,
2013-04-07 23:37:00,72.9,43.6,29.62,SSW,203,1.0,9.0,35,0.00,,,0.00,Wunderground v.1.15,2013-04-08 06:37:00,
2013-04-07 23:42:00,73.1,43.8,29.62,SSE,150,7.0,7.0,35,0.00,,,0.00,Wunderground v.1.15,2013-04-08 06:42:00,
2013-04-07 23:47:00,73.4,43.3,29.62,WNW,302,1.0,8.0,34,0.00,,,0.00,Wunderground v.1.15,2013-04-08 06:47:00,
2013-04-07 23:52:00,73.7,43.6,29.62,NW,326,0.0,6.0,34,0.00,,,0.00,Wunderground v.1.15,2013-04-08 06:52:00,
2013-04-07 23:57:00,74.0,43.1,29.62,SSW,212,2.0,7.0,33,0.00,,,0.00,Wunderground v.1.15,2013-04-08 06:57:00,